Archival Weather

Yakutsk

Yakutsk, Russia (UEEE)

Report from: Thursday, January 26, 2023 3:00 AM JST
Current time: Saturday, April 1, 2023 10:19 PM JST

Current weather
Weather history
Weather forecast

Present weatherFog
Temperature-50.0°C (-58.0°F)
Dew point-54.0°C (-65.2°F)
Winds Calm
Visibility0.2 mi. (0.3 km)
Clouds Ceiling: Vertical visibility 200 ft. (61 m)
Altimeter30.39 in.Hg (1029 mB)
Precip. events QB 3:10 AM
QF 2:43 PM
Relative humidity62 %
Density altitude-9,542 ft. (-2,908 m)
Remarks No significant changes expected in the next two hours
Flight conditions Low Instrument Meteorological Conditions
Raw dataUEEE 251800Z 00000MPS 0300 0100NE R23L/0400N FG VV002 M50/M54 Q1029 R23L/490150 NOSIG RMK QBB070 QFE763
An error has occurred. This application may no longer respond until reloaded. Reload 🗙